Latest Weather Observations for Mount Magnet Airport

IDW60801

Issued at 10:04 am WST Monday 23 January 2017 (issued every 30 minutes, with the page automatically refreshed every 10 minutes)

About weather observations | Map of weather stations | Latest weather observations for WA | Other Formats
Station Details ID: 007600 Name: MOUNT MAGNET AERO Lat: -28.12 Lon: 117.84 Height: 407.0 m
Data from the previous 72 hours. | See also: Recent months at Mount Magnet Airport
Date/Time
WST
Temp
°C
App
Temp
°C
Dew
Point
°C
Rel
Hum
%
Delta-T
°C
Wind Press
QNH
hPa
Press
MSL
hPa
Rain since
9am
mm
Dir  Spd
km/h
Gust
km/h
Spd
kts
Gust
kts
23/09:30am 22.2 18.0 9.7 45 6.9 S 22 28 12 15 1014.1 1010.9 0.0
23/09:00am 21.2 16.6 9.8 48 6.3 S 24 33 13 18 1014.3 1011.1 0.0
23/08:30am 20.0 15.8 9.9 52 5.5 S 22 32 12 17 1014.2 1011.0 0.0
23/08:00am 18.6 14.4 9.9 57 4.7 SSW 22 28 12 15 1014.2 1011.0 0.0
23/07:30am 17.9 13.0 10.0 60 4.3 SSW 26 32 14 17 1014.1 1010.9 0.0
23/07:00am 17.7 13.2 10.1 61 4.1 SSW 24 32 13 17 1013.8 1010.7 0.0
23/06:30am 16.9 12.7 9.8 63 3.8 SSW 22 30 12 16 1013.3 1010.1 0.0
23/06:00am 16.6 12.9 9.5 63 3.8 SSW 19 24 10 13 1013.2 1010.0 0.0
23/05:30am 16.5 12.6 9.4 63 3.8 SSW 20 26 11 14 1012.5 1009.3 0.0
23/05:00am 17.0 12.3 9.4 61 4.0 SSW 24 32 13 17 1012.2 1009.0 0.0
23/04:30am 17.2 12.5 9.4 60 4.2 SSW 24 30 13 16 1011.9 1008.7 0.0
23/04:00am 17.8 13.5 9.2 57 4.6 SSW 22 32 12 17 1011.6 1008.4 0.0
23/03:30am 18.2 13.5 9.3 56 4.8 SW 24 33 13 18 1011.4 1008.1 0.0
23/03:00am 18.9 13.0 9.1 53 5.2 SW 30 37 16 20 1011.0 1007.8 0.0
23/02:30am 19.9 14.3 8.6 48 6.0 SW 28 39 15 21 1010.9 1007.7 0.0
23/02:00am 20.8 15.8 8.1 44 6.8 SW 24 33 13 18 1010.9 1007.7 0.0
23/01:30am 21.9 15.8 6.6 37 8.0 SSW 28 39 15 21 1010.8 1007.6 0.0
23/01:00am 23.4 17.0 7.1 35 8.6 SSW 30 41 16 22 1010.6 1007.4 0.0
23/12:30am 24.4 19.0 8.0 35 8.9 SSW 26 37 14 20 1010.3 1007.1 0.0
23/12:00am 25.5 19.8 8.5 34 9.3 SW 28 35 15 19 1010.3 1007.1 0.0
 
Date/Time
WST
Temp
°C
App
Temp
°C
Dew
Point
°C
Rel
Hum
%
Delta-T
°C
Wind Press
QNH
hPa
Press
MSL
hPa
Rain since
9am
mm
Dir  Spd
km/h
Gust
km/h
Spd
kts
Gust
kts
22/11:30pm 26.7 20.8 9.1 33 9.8 SSW 30 43 16 23 1010.1 1006.9 0.0
22/11:00pm 28.0 22.6 7.8 28 11.1 SW 26 33 14 18 1009.8 1006.6 0.0
22/10:30pm 29.1 22.7 7.1 25 12.0 SSW 30 41 16 22 1009.8 1006.6 0.0
22/10:11pm 29.7 23.7 7.0 24 12.4 SSW 28 46 15 25 1009.7 1006.5 0.0
22/10:00pm 30.1 23.6 6.7 23 12.8 SSW 30 39 16 21 1009.5 1006.3 0.0
22/09:30pm 31.3 26.0 4.9 19 14.1 SSW 22 33 12 18 1009.3 1006.0 0.0
22/09:00pm 32.1 26.1 3.1 16 15.1 SSW 24 32 13 17 1009.1 1005.8 0.0
22/08:30pm 32.8 26.5 1.8 14 15.8 SSW 24 32 13 17 1008.4 1005.2 0.0
22/08:00pm 33.5 28.1 2.4 14 16.1 SSW 20 30 11 16 1008.0 1004.8 0.0
22/07:30pm 34.1 28.2 1.8 13 16.6 SW 22 30 12 16 1007.7 1004.5 0.0
22/07:00pm 34.7 27.8 2.3 13 16.9 SSW 28 33 15 18 1007.3 1004.1 0.0
22/06:30pm 35.5 28.8 3.9 14 17.0 SW 28 39 15 21 1007.0 1003.7 0.0
22/06:00pm 36.1 29.4 5.4 15 17.0 SW 30 41 16 22 1006.6 1003.3 0.0
22/05:30pm 36.6 29.6 5.8 15 17.1 SW 32 48 17 26 1006.2 1002.9 0.0
22/05:09pm 36.9 29.9 6.0 15 17.2 SW 32 54 17 29 1006.0 1002.8 0.0
22/05:00pm 36.9 29.7 6.0 15 17.3 SW 33 44 18 24 1006.0 1002.8 0.0
22/04:30pm 37.1 30.5 6.2 15 17.3 SW 30 41 16 22 1006.0 1002.8 0.0
22/04:00pm 37.5 31.0 6.5 15 17.5 SW 30 43 16 23 1006.2 1002.9 0.0
22/03:30pm 37.8 31.3 6.7 15 17.6 WSW 30 46 16 25 1006.4 1003.1 0.0
22/03:00pm 38.0 32.3 6.9 15 17.7 WSW 26 43 14 23 1006.6 1003.3 0.0
22/02:58pm 37.7 31.6 6.6 15 17.6 WSW 28 46 15 25 1006.7 1003.4 0.0
22/02:30pm 38.2 31.8 7.0 15 17.8 WSW 30 39 16 21 1006.9 1003.6 0.0
22/02:17pm 37.1 30.7 7.1 16 17.0 WSW 30 48 16 26 1007.0 1003.7 0.0
22/02:00pm 37.7 31.6 6.6 15 17.6 W 28 37 15 20 1007.2 1004.0 0.0
22/01:30pm 37.3 31.5 6.3 15 17.4 WSW 26 41 14 22 1007.4 1004.2 0.0
22/01:00pm 37.3 32.1 7.3 16 17.1 SW 24 37 13 20 1007.5 1004.3 0.0
22/12:30pm 36.1 31.6 6.3 16 16.6 WSW 19 28 10 15 1007.7 1004.5 0.0
22/12:00pm 34.6 30.8 7.6 19 15.3 WSW 17 28 9 15 1007.9 1004.7 0.0
22/11:30am 34.1 30.0 8.0 20 14.8 WSW 19 28 10 15 1008.1 1004.9 0.0
22/11:00am 32.7 29.1 8.2 22 13.9 WSW 17 22 9 12 1008.2 1005.0 0.0
22/10:30am 32.3 28.7 8.5 23 13.5 SW 17 26 9 14 1008.4 1005.2 0.0
22/10:00am 30.7 27.7 7.8 24 12.8 WSW 13 22 7 12 1008.6 1005.4 0.0
22/09:30am 28.7 25.2 7.3 26 11.7 WSW 15 20 8 11 1008.5 1005.3 0.0
22/09:00am 28.6 24.9 7.8 27 11.5 WSW 17 20 9 11 1008.5 1005.3 0.0
22/08:30am 27.0 23.6 7.5 29 10.6 SW 15 22 8 12 1008.6 1005.4 0.0
22/08:00am 26.3 23.1 6.9 29 10.4 SW 13 19 7 10 1008.6 1005.4 0.0
22/07:30am 25.4 21.0 6.6 30 10.0 SW 19 24 10 13 1008.3 1005.1 0.0
22/07:00am 25.3 20.7 6.5 30 10.0 SW 20 26 11 14 1007.9 1004.7 0.0
22/06:30am 24.5 19.9 6.3 31 9.6 WSW 20 26 11 14 1007.6 1004.4 0.0
22/06:00am 24.2 20.5 6.5 32 9.3 WSW 15 19 8 10 1007.4 1004.2 0.0
22/05:30am 24.4 20.3 6.2 31 9.5 WSW 17 20 9 11 1006.7 1003.4 0.0
22/05:00am 24.7 21.0 6.4 31 9.7 WSW 15 20 8 11 1006.7 1003.4 0.0
22/04:30am 25.4 21.3 6.1 29 10.2 WSW 17 24 9 13 1006.6 1003.3 0.0
22/04:00am 25.8 21.9 6.9 30 10.1 WSW 17 26 9 14 1006.4 1003.1 0.0
22/03:30am 26.4 21.5 6.9 29 10.5 WSW 22 30 12 16 1006.2 1002.9 0.0
22/03:00am 26.9 22.7 7.4 29 10.6 WSW 19 22 10 12 1006.2 1002.9 0.0
22/02:30am 27.3 23.5 7.7 29 10.7 WSW 17 22 9 12 1005.9 1002.7 0.0
22/02:00am 27.7 23.1 8.1 29 10.8 SW 22 32 12 17 1005.9 1002.7 0.0
22/01:30am 28.3 24.1 8.1 28 11.2 SW 20 28 11 15 1006.2 1002.9 0.0
22/01:00am 28.9 24.8 8.6 28 11.4 SW 20 30 11 16 1006.0 1002.8 0.0
22/12:30am 29.5 24.2 8.5 27 11.8 SSW 26 35 14 19 1006.4 1003.1 0.0
22/12:00am 30.3 25.5 8.7 26 12.2 SW 24 33 13 18 1006.8 1003.5 0.0
 
Date/Time
WST
Temp
°C
App
Temp
°C
Dew
Point
°C
Rel
Hum
%
Delta-T
°C
Wind Press
QNH
hPa
Press
MSL
hPa
Rain since
9am
mm
Dir  Spd
km/h
Gust
km/h
Spd
kts
Gust
kts
21/11:30pm 31.1 25.9 8.8 25 12.6 SW 26 33 14 18 1006.7 1003.4 0.0
21/11:00pm 32.1 26.6 9.0 24 13.2 SW 28 39 15 21 1006.7 1003.4 0.0
21/10:30pm 32.7 27.1 8.9 23 13.6 SW 28 39 15 21 1006.4 1003.1 0.0
21/10:00pm 33.3 26.7 8.7 22 14.1 SW 33 46 18 25 1005.9 1002.7 0.0
21/09:30pm 35.5 28.7 4.9 15 16.7 SW 30 56 16 30 1005.3 1002.1 0.0
21/09:29pm 35.9 29.1 3.2 13 17.4 SW 28 43 15 23 1005.3 1002.1 0.0
21/09:00pm 36.9 32.1 0.3 10 18.8 W 15 19 8 10 1004.9 1001.7 0.0
21/08:30pm 37.4 32.5 2.0 11 18.6 W 17 20 9 11 1004.5 1001.2 0.0
21/08:00pm 38.2 33.6 3.8 12 18.8 WSW 17 24 9 13 1004.2 1000.9 0.0
21/07:30pm 38.8 33.7 4.3 12 18.9 W 20 28 11 15 1003.8 1000.5 0.0
21/07:00pm 39.4 36.4 5.9 13 19.0 WSW 11 15 6 8 1003.6 1000.3 0.0
21/06:30pm 39.9 37.1 8.4 15 18.5 W 13 20 7 11 1003.2 1000.0 0.0
21/06:00pm 39.5 37.4 9.9 17 17.8 W 11 19 6 10 1002.9 999.7 0.0
21/05:30pm 39.8 36.8 9.2 16 18.1 W 15 22 8 12 1002.6 999.4 0.0
21/05:00pm 39.7 38.1 10.1 17 17.8 SSW 9 15 5 8 1002.4 999.1 0.0
21/04:30pm 39.9 38.2 11.1 18 17.5 SSW 11 17 6 9 1002.4 999.1 0.0
21/04:00pm 40.0 38.3 11.2 18 17.6 SSW 11 19 6 10 1002.6 999.4 0.0
21/03:30pm 38.7 36.9 13.2 22 15.9 S 15 22 8 12 1003.0 999.8 0.0
21/03:00pm 38.8 38.0 13.9 22 15.8 NW 11 20 6 11 1003.6 1000.3 0.0
21/02:40pm 39.7 37.4 14.7 23 16.0 NNW 20 46 11 25 1003.4 1000.2 0.0
21/02:30pm 39.2 37.5 13.6 22 16.1 WNW 15 20 8 11 1003.6 1000.3 0.0
21/02:00pm 39.7 37.2 14.0 22 16.3 NW 20 30 11 16 1004.1 1000.8 0.0
21/01:30pm 38.5 35.8 13.0 22 15.9 WNW 19 30 10 16 1004.6 1001.3 0.0
21/01:00pm 38.7 38.2 13.8 22 15.7 NW 9 28 5 15 1004.9 1001.7 0.0
21/12:30pm 37.1 36.0 14.4 26 14.3 NNW 13 24 7 13 1005.4 1002.2 0.0
21/12:00pm 36.7 35.9 15.2 27 13.7 NE 13 28 7 15 1005.6 1002.4 0.0
21/11:30am 37.3 35.6 15.7 27 13.9 N 19 30 10 16 1005.9 1002.7 0.0
21/11:00am 36.5 35.9 16.6 30 13.0 NNW 15 22 8 12 1006.4 1003.1 0.0
21/10:30am 34.6 33.3 17.3 35 11.3 N 20 30 11 16 1006.7 1003.4 0.0
21/10:00am 35.0 34.1 18.1 36 11.2 NNE 20 32 11 17 1006.9 1003.6 0.0
21/09:30am 34.6 32.8 17.8 37 11.0 N 24 32 13 17 1007.1 1003.9 0.0
21/09:00am 33.5 31.6 17.6 38 10.4 NNE 24 35 13 19 1007.2 1004.0 0.0
21/08:30am 32.6 30.7 17.6 40 9.8 NNE 24 33 13 18 1007.3 1004.1 0.0
21/08:00am 31.6 29.5 17.1 41 9.4 NNE 24 32 13 17 1007.3 1004.1 0.0
21/07:30am 30.8 27.8 14.8 37 9.9 NE 24 32 13 17 1007.2 1004.0 0.0
21/07:00am 29.3 27.6 12.3 35 10.1 ENE 13 17 7 9 1007.2 1004.0 0.0
21/06:30am 26.4 25.0 3.6 23 11.5 CALM 0 2 0 1 1007.0 1003.7 0.0
21/06:00am 24.9 23.1 1.1 21 11.4 CALM 0 0 0 0 1006.9 1003.6 0.0
21/05:30am 24.6 22.8 1.5 22 11.1 CALM 0 0 0 0 1006.6 1003.3 0.0
21/05:00am 24.7 22.5 0.9 21 11.4 SSW 2 6 1 3 1006.4 1003.1 0.0
21/04:30am 25.0 21.7 -0.2 19 11.8 SSW 7 9 4 5 1006.2 1002.9 0.0
21/04:00am 25.4 22.0 -0.6 18 12.2 SW 7 9 4 5 1005.9 1002.7 0.0
21/03:30am 25.7 22.3 -0.4 18 12.2 SW 7 9 4 5 1005.8 1002.6 0.0
21/03:00am 26.1 22.3 -0.8 17 12.6 SSW 9 11 5 6 1005.8 1002.6 0.0
21/02:30am 26.5 23.0 -1.3 16 12.9 SW 7 11 4 6 1006.0 1002.8 0.0
21/02:00am 26.9 23.1 -1.0 16 13.1 SW 9 11 5 6 1006.2 1002.9 0.0
21/01:30am 27.5 24.0 -1.4 15 13.5 SW 7 9 4 5 1006.4 1003.1 0.0
21/01:00am 28.1 23.9 -0.9 15 13.8 SSW 11 13 6 7 1006.5 1003.2 0.0
21/12:30am 28.8 24.2 -1.3 14 14.2 S 13 15 7 8 1006.6 1003.3 0.0
21/12:00am 29.4 24.4 -0.9 14 14.5 S 15 19 8 10 1006.7 1003.4 0.0
 
Date/Time
WST
Temp
°C
App
Temp
°C
Dew
Point
°C
Rel
Hum
%
Delta-T
°C
Wind Press
QNH
hPa
Press
MSL
hPa
Rain since
9am
mm
Dir  Spd
km/h
Gust
km/h
Spd
kts
Gust
kts
20/11:30pm 30.1 24.8 -0.3 14 14.7 S 17 22 9 12 1006.7 1003.4 0.0
20/11:00pm 30.7 24.4 -0.8 13 15.2 S 22 30 12 16 1006.8 1003.5 0.0
20/10:30pm 31.5 24.2 -0.2 13 15.5 S 28 37 15 20 1006.7 1003.4 0.0
20/10:00pm 31.3 25.4 -2.6 11 16.0 SSW 19 22 10 12 1006.4 1003.1 0.0
20/09:30pm 32.7 26.5 -2.9 10 16.8 SW 20 30 11 16 1006.4 1003.1 0.0
20/09:00pm 32.9 28.1 -2.7 10 16.9 SSW 13 17 7 9 1006.4 1003.1 0.0
20/08:30pm 33.8 30.0 -0.7 11 17.0 SSW 9 11 5 6 1006.4 1003.1 0.0
20/08:00pm 34.4 31.8 4.0 15 16.3 SSE 7 13 4 7 1006.0 1002.8 0.0
20/07:30pm 34.9 31.8 3.5 14 16.7 SE 9 11 5 6 1005.7 1002.5 0.0
20/07:00pm 35.6 33.0 3.0 13 17.3 SW 6 7 3 4 1005.4 1002.2 0.0
20/06:30pm 36.0 33.2 3.3 13 17.4 SW 7 17 4 9 1005.2 1002.0 0.0
20/06:00pm 36.3 33.6 3.5 13 17.6 W 7 17 4 9 1005.0 1001.8 0.0
20/05:30pm 36.6 33.0 4.8 14 17.4 SSE 13 20 7 11 1004.7 1001.4 0.0
20/05:00pm 35.7 33.3 5.1 15 16.8 SE 7 19 4 10 1004.7 1001.4 0.0
20/04:30pm 35.7 32.5 5.1 15 16.7 WSW 11 19 6 10 1004.7 1001.4 0.0
20/04:00pm 35.4 31.6 5.8 16 16.4 SW 15 26 8 14 1005.0 1001.8 0.0
20/03:30pm 35.7 33.7 6.9 17 16.2 WNW 7 13 4 7 1005.3 1002.1 0.0
20/03:00pm 35.0 32.1 6.3 17 16.0 N 11 17 6 9 1005.7 1002.5 0.0
20/02:30pm 34.6 32.0 6.0 17 15.8 S 9 24 5 13 1006.3 1003.0 0.0
20/02:00pm 33.9 31.7 7.8 20 14.8 ESE 9 15 5 8 1006.6 1003.3 0.0
20/01:30pm 34.0 31.8 7.9 20 14.8 SE 9 17 5 9 1007.0 1003.7 0.0
20/01:00pm 33.7 29.8 6.9 19 15.0 ESE 17 26 9 14 1007.3 1004.1 0.0
20/12:30pm 32.4 28.5 7.3 21 14.0 ESE 17 28 9 15 1007.7 1004.5 0.0
20/12:00pm 31.6 27.5 8.0 23 13.3 ESE 19 28 10 15 1008.1 1004.9 0.0
20/11:30am 32.0 28.2 7.6 22 13.6 ESE 17 32 9 17 1008.5 1005.3 0.0
20/11:00am 30.1 25.7 6.7 23 12.8 ESE 19 28 10 15 1009.2 1005.9 0.0
20/10:30am 29.0 24.7 7.0 25 12.0 SE 19 30 10 16 1009.6 1006.4 0.0

Other Formats:

Comma delimited format used in spreadsheet applications
http://www.bom.gov.au/fwo/IDW60801/IDW60801.94429.axf

JavaScript Object Notation format (JSON) in row-major order
http://www.bom.gov.au/fwo/IDW60801/IDW60801.94429.json